createdAt,value
2022-12-16T00:00:56.475Z,57.08
2022-12-16T00:03:28.033Z,56.90
2022-12-16T00:05:59.992Z,57.15
2022-12-16T00:08:29.360Z,55.55
2022-12-16T00:11:05.076Z,61.20
2022-12-16T00:13:39.727Z,55.22
2022-12-16T00:16:14.756Z,65.05
2022-12-16T00:18:51.779Z,60.17
2022-12-16T00:21:29.828Z,60.70
2022-12-16T00:24:04.232Z,60.40
2022-12-16T00:26:34.750Z,61.33
2022-12-16T00:31:45.236Z,67.00
2022-12-16T03:10:05.190Z,46.03
2022-12-16T15:31:06.814Z,81.10
2022-12-16T19:33:45.720Z,91.07
2022-12-16T19:37:19.143Z,86.60
2022-12-16T22:33:59.490Z,71.15
2022-12-16T22:36:47.836Z,71.32
2022-12-16T22:39:41.363Z,69.10
2022-12-16T22:42:34.170Z,71.30
2022-12-16T22:48:20.323Z,83.72
2022-12-16T22:51:07.394Z,80.70
2022-12-16T22:53:53.626Z,80.18
2022-12-16T22:56:40.248Z,86.55
2022-12-16T22:59:26.812Z,86.03
2022-12-16T23:02:14.764Z,92.53
2022-12-16T23:05:04.011Z,92.35
2022-12-16T23:07:54.181Z,87.07
2022-12-16T23:10:43.776Z,91.57
2022-12-16T23:13:33.367Z,94.57
2022-12-16T23:16:20.171Z,95.30
2022-12-16T23:19:06.537Z,95.10
2022-12-16T23:21:55.901Z,91.28
2022-12-16T23:24:44.151Z,88.13
2022-12-16T23:27:29.994Z,95.07
2022-12-16T23:30:16.281Z,89.03
2022-12-16T23:33:02.809Z,89.00
2022-12-16T23:38:26.792Z,90.90
2022-12-16T23:41:17.405Z,89.15
2022-12-16T23:44:04.163Z,91.07
2022-12-16T23:49:10.042Z,78.90
2022-12-16T23:52:10.721Z,79.93
2022-12-16T23:55:01.488Z,80.40
2022-12-16T23:57:47.580Z,80.65
